Time;durP1;ratioP1;P1;durP2;ratioP2;P2;SDS_P1;SDS_P2;PMS_P1;PMS_P2;Temp;Humidity;BMP_temperature;BMP_pressure;BME280_temperature;BME280_humidity;BME280_pressure;Samples;Min_cycle;Max_cycle;Signal;HPM_P1;HPM_P2
2023/12/06 00:01:36;;;;;;;52.50;25.53;;;;;;;-145.18;100.00;46679.94;5090807;28;20024;-73
2023/12/06 00:04:01;;;;;;;47.93;23.90;;;;;;;-145.18;100.00;46685.78;5090470;28;20051;-73
2023/12/06 00:06:27;;;;;;;46.63;22.03;;;;;;;-145.18;100.00;46676.03;5090119;28;20476;-73
2023/12/06 00:08:55;;;;;;;48.10;23.60;;;;;;;-145.18;100.00;46679.94;5090624;28;20109;-73
2023/12/06 00:11:20;;;;;;;46.17;20.77;;;;;;;-145.18;100.00;46677.97;5092001;28;20056;-73
2023/12/06 00:13:46;;;;;;;44.00;22.70;;;;;;;-145.18;100.00;46670.16;5092698;28;20277;-73
2023/12/06 00:16:11;;;;;;;42.17;18.60;;;;;;;-145.18;100.00;46676.03;5089267;28;20036;-73
2023/12/06 00:18:36;;;;;;;45.97;21.40;;;;;;;-145.18;100.00;46679.94;5084366;28;20024;-72
2023/12/06 00:21:02;;;;;;;45.00;22.07;;;;;;;-145.18;100.00;46676.03;5091620;28;20491;-75
2023/12/06 00:23:27;;;;;;;41.57;20.63;;;;;;;-145.18;100.00;46689.69;5089631;28;20039;-75
2023/12/06 00:25:52;;;;;;;43.53;21.27;;;;;;;-145.18;100.00;46677.97;5091417;28;20040;-74
2023/12/06 00:28:18;;;;;;;43.00;20.57;;;;;;;-145.18;100.00;46685.78;5091724;28;20036;-73
2023/12/06 00:30:43;;;;;;;41.00;19.87;;;;;;;-145.18;100.00;46681.88;5087438;28;20118;-72
2023/12/06 00:33:09;;;;;;;49.83;21.97;;;;;;;-145.18;100.00;46679.94;5086850;28;20051;-73
2023/12/06 00:35:34;;;;;;;46.70;20.63;;;;;;;-145.18;100.00;46681.88;5088176;28;20111;-66
2023/12/06 00:37:59;;;;;;;43.57;19.97;;;;;;;-145.18;100.00;46681.88;5087821;28;20468;-66
2023/12/06 00:40:25;;;;;;;37.87;19.67;;;;;;;-145.18;100.00;46679.94;5081412;28;20111;-66
2023/12/06 00:42:50;;;;;;;37.57;20.60;;;;;;;-145.18;100.00;46681.88;5086501;28;20034;-66
2023/12/06 00:45:16;;;;;;;39.70;18.73;;;;;;;-145.18;100.00;46695.56;5073180;28;20033;-66
2023/12/06 00:47:41;;;;;;;39.40;20.13;;;;;;;-145.18;100.00;46685.78;5071914;28;20036;-66
2023/12/06 00:50:07;;;;;;;39.57;19.73;;;;;;;-145.18;100.00;46685.78;5088613;28;20453;-66
2023/12/06 00:52:32;;;;;;;36.37;19.43;;;;;;;-145.18;100.00;46693.59;5095503;28;20039;-66
2023/12/06 00:54:58;;;;;;;35.87;18.63;;;;;;;-145.18;100.00;46687.75;5091954;28;20723;-66
2023/12/06 00:57:23;;;;;;;37.33;19.80;;;;;;;-145.18;100.00;46693.59;5089672;28;20480;-66
2023/12/06 00:59:49;;;;;;;38.20;19.67;;;;;;;-145.18;100.00;46677.97;5088638;28;20028;-66
2023/12/06 01:02:14;;;;;;;36.70;19.73;;;;;;;-145.18;100.00;46689.69;5088028;28;20463;-66
2023/12/06 01:04:39;;;;;;;38.03;19.17;;;;;;;-145.18;100.00;46676.03;5086702;28;20042;-67
2023/12/06 01:07:05;;;;;;;38.47;19.27;;;;;;;-145.18;100.00;46681.88;5089980;28;20089;-66
2023/12/06 01:09:31;;;;;;;34.87;18.03;;;;;;;-145.18;100.00;46687.75;5088021;28;20047;-66
2023/12/06 01:11:58;;;;;;;39.63;18.13;;;;;;;-145.18;100.00;46687.75;5085023;28;20101;-67
2023/12/06 01:14:23;;;;;;;37.23;18.10;;;;;;;-145.18;100.00;46697.50;5090881;28;20039;-66
2023/12/06 01:16:48;;;;;;;37.57;18.37;;;;;;;-145.18;100.00;46691.66;5080847;28;20269;-66
2023/12/06 01:19:16;;;;;;;33.70;17.80;;;;;;;-145.18;100.00;46685.78;5089336;28;20487;-66
2023/12/06 01:21:41;;;;;;;34.00;18.57;;;;;;;-145.18;100.00;46693.59;5092031;28;20110;-66
2023/12/06 01:24:06;;;;;;;28.77;16.33;;;;;;;-145.18;100.00;46681.88;5082099;28;20673;-66
2023/12/06 01:26:32;;;;;;;29.73;16.13;;;;;;;-145.18;100.00;46677.97;5091114;28;20044;-66
2023/12/06 01:28:59;;;;;;;28.67;15.40;;;;;;;-145.18;100.00;46681.88;5085239;28;20458;-66
2023/12/06 01:31:24;;;;;;;31.87;17.97;;;;;;;-145.18;100.00;46683.84;5086380;28;20036;-66
2023/12/06 01:33:50;;;;;;;38.90;17.73;;;;;;;-145.18;100.00;46691.66;5087903;28;20625;-66
2023/12/06 01:36:15;;;;;;;33.03;17.83;;;;;;;-145.18;100.00;46691.66;5089018;28;20064;-66
2023/12/06 01:38:41;;;;;;;31.30;16.43;;;;;;;-145.18;100.00;46699.47;5087239;28;20060;-66
2023/12/06 01:41:10;;;;;;;31.57;17.77;;;;;;;-145.18;100.00;46697.50;5090709;28;20054;-68
2023/12/06 01:43:36;;;;;;;30.83;17.47;;;;;;;-145.18;100.00;46691.66;5090004;28;20472;-68
2023/12/06 01:46:02;;;;;;;36.97;17.40;;;;;;;-145.18;100.00;46691.66;5088199;28;20272;-66
2023/12/06 01:48:29;;;;;;;28.43;16.07;;;;;;;-145.18;100.00;46695.56;5087461;28;20343;-66
2023/12/06 01:50:56;;;;;;;28.80;16.30;;;;;;;-145.18;100.00;46693.59;5083813;28;20111;-66
2023/12/06 01:53:22;;;;;;;30.20;15.90;;;;;;;-145.18;100.00;46697.50;5087910;28;20675;-68
2023/12/06 01:55:47;;;;;;;30.93;15.43;;;;;;;-145.18;100.00;46687.75;5084561;28;20261;-68
2023/12/06 01:58:13;;;;;;;32.53;17.50;;;;;;;-145.18;100.00;46687.75;5084369;28;20479;-66
2023/12/06 02:00:39;;;;;;;33.17;17.70;;;;;;;-145.18;100.00;46695.56;5090623;28;20020;-66
2023/12/06 02:03:06;;;;;;;29.00;15.20;;;;;;;-145.18;100.00;46687.75;5088097;28;20265;-66
2023/12/06 02:05:31;;;;;;;34.10;17.70;;;;;;;-145.18;100.00;46701.41;5088476;28;20326;-66
2023/12/06 02:07:57;;;;;;;35.67;15.73;;;;;;;-145.18;100.00;46679.94;5089673;28;20277;-66
2023/12/06 02:10:22;;;;;;;27.57;15.83;;;;;;;-145.18;100.00;46699.47;5089272;28;20055;-66
2023/12/06 02:12:47;;;;;;;32.10;15.73;;;;;;;-145.18;100.00;46699.47;5086586;28;20088;-66
2023/12/06 02:15:13;;;;;;;32.83;15.17;;;;;;;-145.18;100.00;46681.88;5087253;28;20024;-66
2023/12/06 02:17:40;;;;;;;29.00;15.53;;;;;;;-145.18;100.00;46703.38;5086729;28;20032;-68
2023/12/06 02:20:07;;;;;;;28.90;15.93;;;;;;;-145.18;100.00;46687.75;5087071;28;20032;-65
2023/12/06 02:22:33;;;;;;;29.27;15.30;;;;;;;-145.18;100.00;46693.59;5083163;28;20367;-66
2023/12/06 02:24:59;;;;;;;26.47;15.07;;;;;;;-145.18;100.00;46703.38;5089694;28;20832;-67
2023/12/06 02:27:25;;;;;;;29.53;15.30;;;;;;;-145.18;100.00;46691.66;5089215;28;20352;-66
2023/12/06 02:29:50;;;;;;;26.87;15.30;;;;;;;-145.18;100.00;46701.41;5090482;28;20484;-66
2023/12/06 02:32:16;;;;;;;35.83;16.10;;;;;;;-145.18;100.00;46699.47;5086947;28;20037;-66
2023/12/06 02:34:42;;;;;;;26.83;14.93;;;;;;;-145.18;100.00;46699.47;5088793;28;20381;-66
2023/12/06 02:37:11;;;;;;;29.80;16.63;;;;;;;-145.18;100.00;46705.31;5083979;28;20032;-66
2023/12/06 02:39:39;;;;;;;26.47;15.83;;;;;;;-145.18;100.00;46703.38;5086778;28;20300;-67
2023/12/06 02:42:05;;;;;;;26.13;14.50;;;;;;;-145.18;100.00;46701.41;5088651;28;20594;-66
2023/12/06 02:44:30;;;;;;;33.33;16.23;;;;;;;-145.18;100.00;46699.47;5084132;28;20288;-66
2023/12/06 02:46:56;;;;;;;33.23;16.87;;;;;;;-145.18;100.00;46701.41;5085397;28;20399;-66
2023/12/06 02:49:21;;;;;;;28.60;16.27;;;;;;;-145.18;100.00;46701.41;5085914;28;20457;-67
2023/12/06 02:51:47;;;;;;;29.33;16.80;;;;;;;-145.18;100.00;46701.41;5080868;28;20032;-67
2023/12/06 02:54:12;;;;;;;30.10;16.97;;;;;;;-145.18;100.00;46697.50;5084279;28;20035;-68
2023/12/06 02:56:37;;;;;;;28.97;15.53;;;;;;;-145.18;100.00;46687.75;5086399;28;20048;-68
2023/12/06 02:59:03;;;;;;;29.80;17.23;;;;;;;-145.18;100.00;46705.31;5083568;28;20040;-66
2023/12/06 03:01:28;;;;;;;32.07;16.97;;;;;;;-145.18;100.00;46695.56;5086103;28;20044;-67
2023/12/06 03:03:54;;;;;;;28.73;16.27;;;;;;;-145.18;100.00;46697.50;5080492;28;20048;-66
2023/12/06 03:06:19;;;;;;;30.77;15.73;;;;;;;-145.18;100.00;46699.47;5083706;28;20077;-66
2023/12/06 03:08:44;;;;;;;35.13;17.33;;;;;;;-145.18;100.00;46701.41;5088788;28;20040;-67
2023/12/06 03:11:10;;;;;;;26.37;15.97;;;;;;;-145.18;100.00;46691.66;5094358;28;20052;-66
2023/12/06 03:13:35;;;;;;;37.77;17.13;;;;;;;-145.18;100.00;46685.78;5091610;28;20508;-66
2023/12/06 03:16:00;;;;;;;30.10;16.07;;;;;;;-145.18;100.00;46695.56;5092475;28;20154;-66
2023/12/06 03:18:26;;;;;;;31.93;16.80;;;;;;;-145.18;100.00;46699.47;5091716;28;20032;-66
2023/12/06 03:20:52;;;;;;;33.07;17.27;;;;;;;-145.18;100.00;46691.66;5093788;28;20024;-66
2023/12/06 03:23:17;;;;;;;33.80;17.93;;;;;;;-145.18;100.00;46695.56;5088235;28;20058;-66
2023/12/06 03:25:43;;;;;;;38.17;18.63;;;;;;;-145.18;100.00;46685.78;5091480;28;20036;-66
2023/12/06 03:28:08;;;;;;;34.53;17.10;;;;;;;-145.18;100.00;46695.56;5088975;28;20095;-66
2023/12/06 03:30:34;;;;;;;31.87;16.20;;;;;;;-145.18;100.00;46685.78;5085941;28;20385;-66
2023/12/06 03:32:59;;;;;;;31.37;18.73;;;;;;;-145.18;100.00;46683.84;5087759;28;20064;-67
2023/12/06 03:35:25;;;;;;;30.90;16.10;;;;;;;-145.18;100.00;46681.88;5088784;28;20412;-66
2023/12/06 03:37:50;;;;;;;30.40;17.63;;;;;;;-145.18;100.00;46689.69;5092558;28;20036;-66
2023/12/06 03:40:16;;;;;;;36.80;17.23;;;;;;;-145.18;100.00;46695.56;5091017;28;20081;-66
2023/12/06 03:42:42;;;;;;;34.87;17.37;;;;;;;-145.18;100.00;46681.88;5085313;28;20044;-67
2023/12/06 03:45:09;;;;;;;34.33;16.60;;;;;;;-145.18;100.00;46681.88;5092375;28;20543;-66
2023/12/06 03:47:34;;;;;;;30.63;17.90;;;;;;;-145.18;100.00;46697.50;5088462;28;20683;-66
2023/12/06 03:50:00;;;;;;;31.30;17.17;;;;;;;-145.18;100.00;46691.66;5090843;28;20288;-67
2023/12/06 03:52:25;;;;;;;32.17;17.13;;;;;;;-145.18;100.00;46689.69;5087900;28;20036;-66
2023/12/06 03:54:50;;;;;;;31.37;17.83;;;;;;;-145.18;100.00;46681.88;5088761;28;20042;-67
2023/12/06 03:57:16;;;;;;;33.83;17.73;;;;;;;-145.18;100.00;46691.66;5085430;28;20056;-66
2023/12/06 03:59:41;;;;;;;39.40;17.80;;;;;;;-145.18;100.00;46685.78;5093381;28;20070;-66
2023/12/06 04:02:07;;;;;;;40.60;16.93;;;;;;;-145.18;100.00;46677.97;5090118;28;20036;-67
2023/12/06 04:04:32;;;;;;;31.57;16.43;;;;;;;-145.18;100.00;46681.88;5091836;28;20073;-67
2023/12/06 04:06:57;;;;;;;31.53;16.93;;;;;;;-145.18;100.00;46677.97;5090890;28;20404;-67
2023/12/06 04:09:23;;;;;;;32.53;17.97;;;;;;;-145.18;100.00;46679.94;5089775;28;20075;-67
2023/12/06 04:11:48;;;;;;;34.27;16.60;;;;;;;-145.18;100.00;46679.94;5087757;28;20031;-67
2023/12/06 04:14:14;;;;;;;31.50;17.13;;;;;;;-145.18;100.00;46683.84;5086472;28;20068;-73
2023/12/06 04:16:39;;;;;;;33.63;18.70;;;;;;;-145.18;100.00;46674.06;5089504;28;20035;-72
2023/12/06 04:19:05;;;;;;;34.40;16.73;;;;;;;-145.18;100.00;46676.03;5089966;28;20056;-73
2023/12/06 04:21:30;;;;;;;31.87;17.20;;;;;;;-145.18;100.00;46674.06;5090986;28;20027;-72
2023/12/06 04:23:55;;;;;;;32.27;18.50;;;;;;;-145.18;100.00;46679.94;5088548;28;20024;-73
2023/12/06 04:26:21;;;;;;;32.07;16.30;;;;;;;-145.18;100.00;46677.97;5087798;28;20031;-73
2023/12/06 04:28:47;;;;;;;33.30;17.13;;;;;;;-145.18;100.00;46677.97;5086472;28;20032;-72
2023/12/06 04:31:12;;;;;;;32.80;16.77;;;;;;;-145.18;100.00;46676.03;5090550;28;20044;-73
2023/12/06 04:33:38;;;;;;;35.00;17.57;;;;;;;-145.18;100.00;46676.03;5084252;28;20498;-73
2023/12/06 04:36:04;;;;;;;36.83;18.10;;;;;;;-145.18;100.00;46676.03;5073914;28;20671;-73
2023/12/06 04:38:30;;;;;;;34.87;16.97;;;;;;;-145.18;100.00;46677.97;5084194;28;20024;-72
2023/12/06 04:40:56;;;;;;;39.00;18.73;;;;;;;-145.18;100.00;46674.06;5092161;28;20289;-73
2023/12/06 04:43:21;;;;;;;32.97;17.90;;;;;;;-145.18;100.00;46674.06;5090473;28;20040;-73
2023/12/06 04:45:47;;;;;;;29.93;17.53;;;;;;;-145.18;100.00;46670.16;5091946;28;20153;-73
2023/12/06 04:48:12;;;;;;;32.87;17.47;;;;;;;-145.18;100.00;46677.97;5090407;28;20031;-73
2023/12/06 04:50:37;;;;;;;35.20;16.97;;;;;;;-145.18;100.00;46672.13;5089716;28;20067;-73
2023/12/06 04:53:03;;;;;;;31.03;16.17;;;;;;;-145.18;100.00;46674.06;5088161;28;20031;-73
2023/12/06 04:55:28;;;;;;;38.97;17.27;;;;;;;-145.18;100.00;46672.13;5087105;28;20062;-73
2023/12/06 04:57:53;;;;;;;35.17;18.60;;;;;;;-145.18;100.00;46672.13;5086641;28;20032;-73
2023/12/06 05:00:21;;;;;;;30.30;15.93;;;;;;;-145.18;100.00;46674.06;5085373;28;20450;-73
2023/12/06 05:02:47;;;;;;;32.80;17.03;;;;;;;-145.18;100.00;46668.22;5086711;28;20025;-73
2023/12/06 05:05:12;;;;;;;36.30;17.87;;;;;;;-145.18;100.00;46674.06;5087242;28;20638;-73
2023/12/06 05:07:38;;;;;;;32.30;16.90;;;;;;;-145.18;100.00;46677.97;5089358;28;20396;-73
2023/12/06 05:10:04;;;;;;;32.23;17.23;;;;;;;-145.18;100.00;46670.16;5089674;28;20040;-73
2023/12/06 05:12:29;;;;;;;29.60;15.87;;;;;;;-145.18;100.00;46674.06;5086886;28;20055;-72
2023/12/06 05:14:54;;;;;;;35.27;15.80;;;;;;;-145.18;100.00;46664.31;5086552;28;20036;-73
2023/12/06 05:17:20;;;;;;;34.10;16.70;;;;;;;-145.18;100.00;46674.06;5088775;28;20028;-73
2023/12/06 05:19:45;;;;;;;32.83;16.77;;;;;;;-145.18;100.00;46668.22;5091373;28;20514;-72
2023/12/06 05:22:11;;;;;;;28.87;15.87;;;;;;;-145.18;100.00;46676.03;5086017;28;20626;-73
2023/12/06 05:24:36;;;;;;;34.87;16.90;;;;;;;-145.18;100.00;46672.13;5087066;28;20035;-73
2023/12/06 05:27:02;;;;;;;31.20;17.57;;;;;;;-145.18;100.00;46670.16;5089622;28;20396;-73
2023/12/06 05:29:27;;;;;;;29.97;15.87;;;;;;;-145.18;100.00;46672.13;5089200;28;20035;-73
2023/12/06 05:31:52;;;;;;;30.00;17.37;;;;;;;-145.18;100.00;46674.06;5087067;28;20032;-72
2023/12/06 05:34:19;;;;;;;36.33;16.10;;;;;;;-145.18;100.00;46668.22;5090765;28;20083;-73
2023/12/06 05:36:44;;;;;;;35.33;17.73;;;;;;;-145.18;100.00;46672.13;5083189;28;20404;-73
2023/12/06 05:39:10;;;;;;;29.97;16.73;;;;;;;-145.18;100.00;46664.31;5075762;28;20265;-73
2023/12/06 05:41:35;;;;;;;31.87;16.43;;;;;;;-145.18;100.00;46668.22;5082523;28;20072;-74
2023/12/06 05:44:01;;;;;;;32.83;15.87;;;;;;;-145.18;100.00;46674.06;5072230;28;20115;-73
2023/12/06 05:46:26;;;;;;;32.00;15.57;;;;;;;-145.18;100.00;46668.22;5076395;28;20032;-73
2023/12/06 05:48:51;;;;;;;32.40;15.60;;;;;;;-145.18;100.00;46668.22;5079750;28;20108;-73
2023/12/06 05:51:17;;;;;;;27.70;15.60;;;;;;;-145.18;100.00;46670.16;5078578;28;20033;-73
2023/12/06 05:53:42;;;;;;;28.57;15.43;;;;;;;-145.18;100.00;46674.06;5072377;28;20103;-73
2023/12/06 05:56:09;;;;;;;31.57;16.33;;;;;;;-145.18;100.00;46672.13;5072187;28;20389;-73
2023/12/06 05:58:35;;;;;;;36.83;16.37;;;;;;;-145.18;100.00;46672.13;5072058;28;20036;-73
2023/12/06 06:01:01;;;;;;;31.90;16.93;;;;;;;-145.18;100.00;46672.13;5077303;28;20348;-73
2023/12/06 06:03:26;;;;;;;33.03;16.10;;;;;;;-145.18;100.00;46677.97;5080412;28;20345;-73
2023/12/06 06:05:51;;;;;;;39.03;15.97;;;;;;;-145.18;100.00;46672.13;5084734;28;20031;-73
2023/12/06 06:08:17;;;;;;;27.73;14.70;;;;;;;-145.18;100.00;46670.16;5079512;28;20040;-73
2023/12/06 06:10:42;;;;;;;29.43;16.90;;;;;;;-145.18;100.00;46681.88;5076944;28;20047;-73
2023/12/06 06:13:08;;;;;;;30.27;16.30;;;;;;;-145.18;100.00;46666.25;5080136;28;20062;-72
2023/12/06 06:15:33;;;;;;;30.37;17.03;;;;;;;-145.18;100.00;46674.06;5085628;28;20024;-73
2023/12/06 06:17:59;;;;;;;32.37;17.17;;;;;;;-145.18;100.00;46670.16;5071135;28;20492;-73
2023/12/06 06:20:24;;;;;;;29.77;16.03;;;;;;;-145.18;100.00;46674.06;5054705;28;20016;-73
2023/12/06 06:22:49;;;;;;;34.83;16.50;;;;;;;-145.18;100.00;46670.16;5070968;28;20436;-73
2023/12/06 06:25:15;;;;;;;29.67;16.47;;;;;;;-145.18;100.00;46672.13;5074123;28;20039;-73
2023/12/06 06:27:40;;;;;;;33.53;16.10;;;;;;;-145.18;100.00;46672.13;5081182;28;20426;-74
2023/12/06 06:30:06;;;;;;;34.53;16.77;;;;;;;-145.18;100.00;46668.22;5086966;28;20048;-74
2023/12/06 06:32:32;;;;;;;33.20;17.00;;;;;;;-145.18;100.00;46670.16;5083825;28;20440;-73
2023/12/06 06:34:57;;;;;;;33.53;16.40;;;;;;;-145.18;100.00;46668.22;5060234;28;20367;-73
2023/12/06 06:37:22;;;;;;;34.67;16.13;;;;;;;-145.18;100.00;46668.22;5081367;28;20078;-73
2023/12/06 06:39:48;;;;;;;30.80;17.23;;;;;;;-145.18;100.00;46668.22;5084208;28;20025;-73
2023/12/06 06:42:13;;;;;;;28.17;16.30;;;;;;;-145.18;100.00;46666.25;5073004;28;20420;-73
2023/12/06 06:44:40;;;;;;;34.57;16.63;;;;;;;-145.18;100.00;46670.16;5105491;28;20026;-72
2023/12/06 06:47:06;;;;;;;29.20;16.53;;;;;;;-145.18;100.00;46672.13;5077551;28;20404;-73
2023/12/06 06:49:31;;;;;;;29.10;16.20;;;;;;;-145.18;100.00;46679.94;5085736;28;20268;-73
2023/12/06 06:51:57;;;;;;;34.10;15.93;;;;;;;-145.18;100.00;46672.13;5074438;28;20025;-73
2023/12/06 06:54:22;;;;;;;37.23;17.03;;;;;;;-145.18;100.00;46672.13;5075509;28;20033;-73
2023/12/06 06:56:47;;;;;;;32.37;15.87;;;;;;;-145.18;100.00;46676.03;5080928;28;20020;-73
2023/12/06 06:59:13;;;;;;;34.47;16.50;;;;;;;-145.18;100.00;46668.22;5084340;28;20492;-72
2023/12/06 07:01:39;;;;;;;31.37;14.27;;;;;;;-145.18;100.00;46676.03;5092605;28;20118;-73
2023/12/06 07:04:04;;;;;;;30.00;14.93;;;;;;;-145.18;100.00;46672.13;5095300;28;20480;-73
2023/12/06 07:06:30;;;;;;;28.90;14.30;;;;;;;-145.18;100.00;46676.03;5080753;28;20267;-73
2023/12/06 07:08:55;;;;;;;28.57;14.60;;;;;;;-145.18;100.00;46681.88;5076102;28;20034;-73
2023/12/06 07:11:21;;;;;;;30.90;14.57;;;;;;;-145.18;100.00;46677.97;5073426;28;20503;-72
2023/12/06 07:13:48;;;;;;;31.27;14.10;;;;;;;-145.18;100.00;46681.88;5084334;28;20067;-73
2023/12/06 07:16:13;;;;;;;28.83;13.60;;;;;;;-145.18;100.00;46679.94;5084281;28;20029;-73
2023/12/06 07:18:39;;;;;;;27.23;13.67;;;;;;;-145.18;100.00;46676.03;5090868;28;20276;-73
2023/12/06 07:21:05;;;;;;;30.27;14.30;;;;;;;-145.18;100.00;46679.94;5074431;28;20036;-73
2023/12/06 07:23:31;;;;;;;28.20;15.43;;;;;;;-145.18;100.00;46679.94;5090787;28;20485;-73
2023/12/06 07:25:57;;;;;;;31.73;14.17;;;;;;;-145.18;100.00;46679.94;5078949;28;20269;-73
2023/12/06 07:28:22;;;;;;;28.67;15.27;;;;;;;-145.18;100.00;46693.59;5096286;28;20028;-73
2023/12/06 07:30:48;;;;;;;26.60;13.10;;;;;;;-145.18;100.00;46683.84;5080651;28;20075;-73
2023/12/06 07:33:13;;;;;;;24.77;13.40;;;;;;;-145.18;100.00;46681.88;5082566;28;20034;-72
2023/12/06 07:35:40;;;;;;;29.27;14.03;;;;;;;-145.18;100.00;46687.75;5090517;28;20503;-72
2023/12/06 07:38:08;;;;;;;28.37;12.80;;;;;;;-145.18;100.00;46691.66;5087338;28;20032;-73
2023/12/06 07:40:33;;;;;;;27.20;13.67;;;;;;;-145.18;100.00;46691.66;5082206;28;20773;-73
2023/12/06 07:42:58;;;;;;;28.80;13.30;;;;;;;-145.18;100.00;46676.03;5075076;28;20340;-73
2023/12/06 07:45:24;;;;;;;31.70;15.77;;;;;;;-145.18;100.00;46681.88;5075624;28;20492;-73
2023/12/06 07:47:49;;;;;;;44.27;14.40;;;;;;;-145.18;100.00;46689.69;5092615;28;20035;-73
2023/12/06 07:50:15;;;;;;;29.20;11.90;;;;;;;-145.18;100.00;46681.88;5087580;28;20431;-73
2023/12/06 07:52:41;;;;;;;33.37;13.43;;;;;;;-145.18;100.00;46691.66;5079015;28;20052;-72
2023/12/06 07:55:06;;;;;;;29.27;12.80;;;;;;;-145.18;100.00;46687.75;5072627;28;20327;-73
2023/12/06 07:57:36;;;;;;;30.67;12.17;;;;;;;-145.18;100.00;46685.78;5085926;28;20110;-73
2023/12/06 08:00:02;;;;;;;29.53;12.50;;;;;;;-145.18;100.00;46687.75;5090693;28;20024;-73
2023/12/06 08:02:28;;;;;;;25.97;10.87;;;;;;;-145.18;100.00;46699.47;5093391;28;20268;-73
2023/12/06 08:04:53;;;;;;;23.03;11.27;;;;;;;-145.18;100.00;46695.56;5079850;28;20355;-67
2023/12/06 08:07:18;;;;;;;24.27;10.73;;;;;;;-145.18;100.00;46695.56;5077395;28;20495;-67
2023/12/06 08:09:44;;;;;;;24.93;13.00;;;;;;;-145.18;100.00;46701.41;5074055;28;20079;-67
2023/12/06 08:12:09;;;;;;;17.60;10.67;;;;;;;-145.18;100.00;46699.47;5091228;28;20063;-67
2023/12/06 08:14:35;;;;;;;27.07;9.70;;;;;;;-145.18;100.00;46703.38;5081894;28;20040;-67
2023/12/06 08:17:00;;;;;;;20.87;11.63;;;;;;;-145.18;100.00;46701.41;5090717;28;20074;-67
2023/12/06 08:19:26;;;;;;;29.97;11.03;;;;;;;-145.18;100.00;46699.47;5074850;28;20029;-67
2023/12/06 08:21:51;;;;;;;21.07;9.37;;;;;;;-145.18;100.00;46703.38;5074325;28;20115;-67
2023/12/06 08:24:17;;;;;;;21.07;8.80;;;;;;;-145.18;100.00;46703.38;5074250;28;20037;-67
2023/12/06 08:26:42;;;;;;;17.83;9.27;;;;;;;-145.18;100.00;46701.41;5072433;28;20090;-67
2023/12/06 08:29:08;;;;;;;18.57;9.10;;;;;;;-145.18;100.00;46699.47;5073849;28;20496;-67
2023/12/06 08:31:33;;;;;;;19.97;8.17;;;;;;;-145.18;100.00;46705.31;5073430;28;20060;-67
2023/12/06 08:33:59;;;;;;;18.63;7.53;;;;;;;-145.18;100.00;46705.31;5082538;28;20051;-67
2023/12/06 08:36:25;;;;;;;20.63;8.70;;;;;;;-145.18;100.00;46705.31;5078909;28;20043;-67
2023/12/06 08:38:50;;;;;;;18.93;8.10;;;;;;;-145.18;100.00;46705.31;5073565;28;20448;-67
2023/12/06 08:41:16;;;;;;;18.80;8.40;;;;;;;-145.18;100.00;46703.38;5073056;28;20033;-66
2023/12/06 08:43:43;;;;;;;23.10;8.97;;;;;;;-145.18;100.00;46699.47;5073466;28;20028;-67
2023/12/06 08:46:08;;;;;;;20.00;8.67;;;;;;;-145.18;100.00;46701.41;5076619;28;20086;-67
2023/12/06 08:48:33;;;;;;;17.13;8.03;;;;;;;-145.18;100.00;46703.38;5086612;28;20853;-67
2023/12/06 08:50:59;;;;;;;17.13;8.53;;;;;;;-145.18;100.00;46699.47;5073055;28;20142;-69
2023/12/06 08:53:24;;;;;;;18.87;8.80;;;;;;;-145.18;100.00;46701.41;5073250;28;20049;-68
2023/12/06 08:55:51;;;;;;;26.90;8.23;;;;;;;-145.18;100.00;46699.47;5082407;28;20553;-66
2023/12/06 08:58:17;;;;;;;15.93;7.80;;;;;;;-145.18;100.00;46699.47;5081712;28;20040;-67
2023/12/06 09:00:42;;;;;;;18.60;8.80;;;;;;;-145.18;100.00;46697.50;5087003;28;20345;-67
2023/12/06 09:03:08;;;;;;;18.17;8.57;;;;;;;-145.18;100.00;46699.47;5075677;28;20345;-69
2023/12/06 09:05:34;;;;;;;23.87;9.30;;;;;;;-145.18;100.00;46699.47;5085024;28;20028;-67
2023/12/06 09:08:00;;;;;;;20.13;9.80;;;;;;;-145.18;100.00;46699.47;5073365;28;20076;-67
2023/12/06 09:10:26;;;;;;;18.33;8.50;;;;;;;-145.18;100.00;46705.31;5077105;28;20049;-66
2023/12/06 09:12:52;;;;;;;18.10;8.40;;;;;;;-145.18;100.00;46703.38;5072655;28;20314;-67
2023/12/06 09:15:17;;;;;;;18.37;7.97;;;;;;;-145.18;100.00;46701.41;5073086;28;20040;-67
2023/12/06 09:17:43;;;;;;;20.87;9.13;;;;;;;-145.18;100.00;46701.41;5072657;28;20036;-66
2023/12/06 09:20:09;;;;;;;24.23;8.97;;;;;;;-145.18;100.00;46697.50;5074469;28;20039;-67
2023/12/06 09:22:36;;;;;;;21.07;9.20;;;;;;;-145.18;100.00;46705.31;5072735;28;20039;-68
2023/12/06 09:25:04;;;;;;;23.07;8.90;;;;;;;-145.18;100.00;46699.47;5086730;28;20725;-68
2023/12/06 09:27:31;;;;;;;15.87;8.20;;;;;;;-145.18;100.00;46701.41;5087832;28;20284;-68
2023/12/06 09:29:56;;;;;;;18.20;8.93;;;;;;;-145.18;100.00;46701.41;5080488;28;20278;-68
2023/12/06 09:32:23;;;;;;;20.43;9.63;;;;;;;-145.18;100.00;46705.31;5071812;28;20261;-68
2023/12/06 09:34:48;;;;;;;18.77;8.73;;;;;;;-145.18;100.00;46705.31;5072708;28;20036;-68
2023/12/06 09:37:14;;;;;;;16.83;8.83;;;;;;;-145.18;100.00;46705.31;5072260;28;20621;-68
2023/12/06 09:39:39;;;;;;;19.13;8.13;;;;;;;-145.18;100.00;46701.41;5070595;28;20038;-68
2023/12/06 09:42:05;;;;;;;19.80;9.13;;;;;;;-145.18;100.00;46703.38;5072149;28;20077;-68
2023/12/06 09:44:31;;;;;;;18.90;9.00;;;;;;;-145.18;100.00;46703.38;5085231;28;20476;-68
2023/12/06 09:46:59;;;;;;;16.37;8.73;;;;;;;-145.18;100.00;46701.41;5086226;28;20111;-68
2023/12/06 09:49:24;;;;;;;16.83;8.67;;;;;;;-145.18;100.00;46699.47;5075004;28;20314;-68
2023/12/06 09:51:50;;;;;;;19.90;8.67;;;;;;;-145.18;100.00;46701.41;5082710;28;20289;-68
2023/12/06 09:54:15;;;;;;;16.77;8.80;;;;;;;-145.18;100.00;46709.22;5084713;28;20044;-68
2023/12/06 09:56:41;;;;;;;16.73;8.40;;;;;;;-145.18;100.00;46701.41;5089917;28;20032;-68
2023/12/06 09:59:06;;;;;;;30.80;9.90;;;;;;;-145.18;100.00;46703.38;5082448;28;20058;-68
2023/12/06 10:01:31;;;;;;;16.63;8.60;;;;;;;-145.18;100.00;46707.28;5082691;28;20032;-68
2023/12/06 10:03:57;;;;;;;19.23;9.63;;;;;;;-145.18;100.00;46703.38;5089588;28;20483;-69
2023/12/06 10:06:22;;;;;;;21.33;8.70;;;;;;;-145.18;100.00;46707.28;5084150;28;20035;-68
2023/12/06 10:08:53;;;;;;;18.83;8.40;;;;;;;-145.18;100.00;46703.38;5087985;28;20056;-68
2023/12/06 10:11:22;;;;;;;17.20;7.70;;;;;;;-145.18;100.00;46703.38;5085187;28;20518;-69
2023/12/06 10:13:48;;;;;;;15.80;7.77;;;;;;;-145.18;100.00;46711.19;5088445;28;20273;-69
2023/12/06 10:16:19;;;;;;;17.33;8.97;;;;;;;-145.18;100.00;46705.31;5084770;28;20322;-68
2023/12/06 10:18:47;;;;;;;19.03;8.87;;;;;;;-145.18;100.00;46705.31;5079278;28;20039;-68
2023/12/06 10:21:12;;;;;;;20.67;10.43;;;;;;;-145.18;100.00;46705.31;5075369;28;20249;-68
2023/12/06 10:23:38;;;;;;;31.93;16.03;;;;;;;-145.18;100.00;46705.31;5071811;28;20319;-69
2023/12/06 10:26:05;;;;;;;17.97;9.93;;;;;;;-145.18;100.00;46707.28;5087257;28;20032;-74
2023/12/06 10:28:35;;;;;;;16.67;8.60;;;;;;;-145.18;100.00;46705.31;5083008;28;20049;-74
2023/12/06 10:31:01;;;;;;;18.37;8.40;;;;;;;-145.18;100.00;46709.22;5076930;28;20273;-74
2023/12/06 10:33:29;;;;;;;19.30;7.67;;;;;;;-145.18;100.00;46707.28;5072173;28;20629;-72
2023/12/06 10:35:57;;;;;;;15.67;7.43;;;;;;;-145.18;100.00;46713.13;5087907;28;20280;-71
2023/12/06 10:38:24;;;;;;;17.53;7.40;;;;;;;-145.18;100.00;46713.13;5071634;28;20262;-71
2023/12/06 10:40:51;;;;;;;15.13;7.27;;;;;;;-145.18;100.00;46711.19;5074386;28;20283;-73
2023/12/06 10:43:17;;;;;;;17.60;8.37;;;;;;;-145.18;100.00;46715.09;5088415;28;20257;-74
2023/12/06 10:45:43;;;;;;;17.03;7.57;;;;;;;-145.18;100.00;46715.09;5078960;28;20253;-74
2023/12/06 10:48:10;;;;;;;19.23;8.00;;;;;;;-145.18;100.00;46715.09;5073312;28;20265;-74